sensor_id;sensor_type;location;lat;lon;timestamp;pressure;altitude;pressure_sealevel;temperature;humidity
68376;BME280;55318;52.068;5.188;2023-02-21T02:14:44;102043.0;;;10.63;94.22
68376;BME280;55318;52.068;5.188;2023-02-21T02:16:33;102041.0;;;10.57;94.46
68376;BME280;55318;52.068;5.188;2023-02-21T02:18:29;102039.0;;;10.53;94.08
68376;BME280;55318;52.068;5.188;2023-02-21T02:22:16;102040.0;;;10.56;94.83
68376;BME280;55318;52.068;5.188;2023-02-21T02:24:42;102036.0;;;10.47;94.93
68376;BME280;55318;52.068;5.188;2023-02-21T02:26:51;102038.0;;;10.56;94.55
68376;BME280;55318;52.068;5.188;2023-02-21T02:34:54;102030.0;;;10.56;94.65
68376;BME280;55318;52.068;5.188;2023-02-21T02:36:39;102030.0;;;10.53;95.2
68376;BME280;55318;52.068;5.188;2023-02-21T02:40:08;102030.0;;;10.55;94.74
68376;BME280;55318;52.068;5.188;2023-02-21T02:41:56;102030.0;;;10.68;94.22
68376;BME280;55318;52.068;5.188;2023-02-21T02:43:42;102035.0;;;10.61;94.19
68376;BME280;55318;52.068;5.188;2023-02-21T02:45:29;102033.0;;;10.41;95.61
68376;BME280;55318;52.068;5.188;2023-02-21T02:47:14;102033.0;;;10.23;96.77
68376;BME280;55318;52.068;5.188;2023-02-21T02:48:57;102033.0;;;10.31;96.4
68376;BME280;55318;52.068;5.188;2023-02-21T02:52:16;102033.0;;;10.34;96.4
68376;BME280;55318;52.068;5.188;2023-02-21T02:53:52;102039.0;;;10.49;95.55
68376;BME280;55318;52.068;5.188;2023-02-21T02:55:35;102036.0;;;10.38;95.83
68376;BME280;55318;52.068;5.188;2023-02-21T02:57:12;102030.0;;;10.4;95.86
68376;BME280;55318;52.068;5.188;2023-02-21T03:00:32;102035.0;;;10.27;96.75
68376;BME280;55318;52.068;5.188;2023-02-21T03:02:26;102028.0;;;10.38;96.23
68376;BME280;55318;52.068;5.188;2023-02-21T03:04:52;102032.0;;;10.34;96.54
68376;BME280;55318;52.068;5.188;2023-02-21T03:06:40;102031.0;;;10.32;96.67
68376;BME280;55318;52.068;5.188;2023-02-21T03:08:30;102030.0;;;10.46;95.96
68376;BME280;55318;52.068;5.188;2023-02-21T03:10:22;102026.0;;;10.47;95.87
68376;BME280;55318;52.068;5.188;2023-02-21T03:12:09;102023.0;;;10.47;95.77
68376;BME280;55318;52.068;5.188;2023-02-21T03:15:36;102020.0;;;10.43;95.99
68376;BME280;55318;52.068;5.188;2023-02-21T03:17:22;102020.0;;;10.56;95.61
68376;BME280;55318;52.068;5.188;2023-02-21T03:19:06;102015.0;;;10.64;95.1
68376;BME280;55318;52.068;5.188;2023-02-21T03:20:45;102021.0;;;10.45;95.85
68376;BME280;55318;52.068;5.188;2023-02-21T03:22:29;102019.0;;;10.7;94.83
68376;BME280;55318;52.068;5.188;2023-02-21T03:25:47;102023.0;;;10.78;94.25
68376;BME280;55318;52.068;5.188;2023-02-21T03:27:26;102025.0;;;10.65;94.8
68376;BME280;55318;52.068;5.188;2023-02-21T03:29:05;102024.0;;;10.75;94.41
68376;BME280;55318;52.068;5.188;2023-02-21T03:30:43;102021.0;;;10.68;94.68
68376;BME280;55318;52.068;5.188;2023-02-21T03:33:57;102022.0;;;10.58;95.05
68376;BME280;55318;52.068;5.188;2023-02-21T03:35:33;102021.0;;;10.77;94.45
68376;BME280;55318;52.068;5.188;2023-02-21T03:37:18;102019.0;;;10.73;94.32
68376;BME280;55318;52.068;5.188;2023-02-21T03:40:33;102021.0;;;10.71;94.56
68376;BME280;55318;52.068;5.188;2023-02-21T03:42:09;102023.0;;;10.77;94.37
68376;BME280;55318;52.068;5.188;2023-02-21T03:43:45;102018.0;;;10.75;94.26
68376;BME280;55318;52.068;5.188;2023-02-21T03:45:22;102017.0;;;10.83;94.27
68376;BME280;55318;52.068;5.188;2023-02-21T03:48:35;102012.0;;;10.79;94.08
68376;BME280;55318;52.068;5.188;2023-02-21T03:50:11;102012.0;;;10.72;94.32
68376;BME280;55318;52.068;5.188;2023-02-21T03:51:48;102014.0;;;10.67;94.97
68376;BME280;55318;52.068;5.188;2023-02-21T03:55:00;102019.0;;;10.6;94.83
68376;BME280;55318;52.068;5.188;2023-02-21T03:56:37;102021.0;;;10.58;94.92
68376;BME280;55318;52.068;5.188;2023-02-21T03:58:14;102017.0;;;10.68;94.66
68376;BME280;55318;52.068;5.188;2023-02-21T04:01:27;102017.0;;;10.7;94.65
68376;BME280;55318;52.068;5.188;2023-02-21T04:03:03;102011.0;;;10.83;94.16
68376;BME280;55318;52.068;5.188;2023-02-21T04:04:39;102017.0;;;10.64;94.68
68376;BME280;55318;52.068;5.188;2023-02-21T04:06:17;102019.0;;;10.71;94.27
68376;BME280;55318;52.068;5.188;2023-02-21T04:09:29;102020.0;;;10.65;94.86
68376;BME280;55318;52.068;5.188;2023-02-21T04:11:05;102014.0;;;10.67;94.91
68376;BME280;55318;52.068;5.188;2023-02-21T04:12:42;102014.0;;;10.41;96.05
68376;BME280;55318;52.068;5.188;2023-02-21T04:15:54;102017.0;;;10.61;95.33
68376;BME280;55318;52.068;5.188;2023-02-21T04:17:31;102016.0;;;10.44;95.94
68376;BME280;55318;52.068;5.188;2023-02-21T04:19:06;102015.0;;;10.68;95.21
68376;BME280;55318;52.068;5.188;2023-02-21T04:22:22;102006.0;;;10.62;94.94
68376;BME280;55318;52.068;5.188;2023-02-21T04:23:58;101995.0;;;10.72;94.63
68376;BME280;55318;52.068;5.188;2023-02-21T04:25:34;102003.0;;;10.46;95.75
68376;BME280;55318;52.068;5.188;2023-02-21T04:27:12;102008.0;;;10.44;96.29
68376;BME280;55318;52.068;5.188;2023-02-21T04:30:24;102016.0;;;10.58;95.66
68376;BME280;55318;52.068;5.188;2023-02-21T04:32:02;102018.0;;;10.57;95.65
68376;BME280;55318;52.068;5.188;2023-02-21T04:33:38;102012.0;;;10.61;95.7
68376;BME280;55318;52.068;5.188;2023-02-21T04:36:51;102008.0;;;10.61;95.32
68376;BME280;55318;52.068;5.188;2023-02-21T04:38:27;102010.0;;;10.53;95.69
68376;BME280;55318;52.068;5.188;2023-02-21T04:40:04;102007.0;;;10.38;96.55
68376;BME280;55318;52.068;5.188;2023-02-21T04:43:20;102006.0;;;10.46;96.48
68376;BME280;55318;52.068;5.188;2023-02-21T04:44:56;102001.0;;;10.36;96.82
68376;BME280;55318;52.068;5.188;2023-02-21T04:46:32;102000.0;;;10.55;96.14
68376;BME280;55318;52.068;5.188;2023-02-21T04:48:09;101994.0;;;10.41;96.81
68376;BME280;55318;52.068;5.188;2023-02-21T04:51:26;101995.0;;;10.37;97.05
68376;BME280;55318;52.068;5.188;2023-02-21T04:53:03;101996.0;;;10.43;96.91
68376;BME280;55318;52.068;5.188;2023-02-21T04:54:38;101995.0;;;10.53;96.53
68376;BME280;55318;52.068;5.188;2023-02-21T04:57:54;101994.0;;;10.55;96.25
68376;BME280;55318;52.068;5.188;2023-02-21T04:59:30;101989.0;;;10.6;95.99
68376;BME280;55318;52.068;5.188;2023-02-21T05:01:06;101981.0;;;10.61;95.89
68376;BME280;55318;52.068;5.188;2023-02-21T05:02:43;101987.0;;;10.49;96.04
68376;BME280;55318;52.068;5.188;2023-02-21T05:05:56;101989.0;;;10.6;95.98
68376;BME280;55318;52.068;5.188;2023-02-21T05:07:32;101997.0;;;10.54;96.33
68376;BME280;55318;52.068;5.188;2023-02-21T05:09:08;101998.0;;;10.62;96.16
68376;BME280;55318;52.068;5.188;2023-02-21T05:12:21;101991.0;;;10.64;95.85
68376;BME280;55318;52.068;5.188;2023-02-21T05:13:58;101985.0;;;10.52;96.15
68376;BME280;55318;52.068;5.188;2023-02-21T05:15:34;101984.0;;;10.34;97.66
68376;BME280;55318;52.068;5.188;2023-02-21T05:18:47;101986.0;;;10.51;96.81
68376;BME280;55318;52.068;5.188;2023-02-21T05:20:24;101984.0;;;10.49;96.86
68376;BME280;55318;52.068;5.188;2023-02-21T05:22:01;101993.0;;;10.41;97.24
68376;BME280;55318;52.068;5.188;2023-02-21T05:23:39;101991.0;;;10.47;96.62
68376;BME280;55318;52.068;5.188;2023-02-21T05:26:55;101993.0;;;10.53;96.6
68376;BME280;55318;52.068;5.188;2023-02-21T05:28:33;101998.0;;;10.56;96.35
68376;BME280;55318;52.068;5.188;2023-02-21T05:30:11;101993.0;;;10.56;95.85
68376;BME280;55318;52.068;5.188;2023-02-21T05:33:24;102001.0;;;10.51;96.54
68376;BME280;55318;52.068;5.188;2023-02-21T05:35:01;101994.0;;;10.59;96.1
68376;BME280;55318;52.068;5.188;2023-02-21T05:36:38;101987.0;;;10.62;96.11
68376;BME280;55318;52.068;5.188;2023-02-21T05:38:16;101989.0;;;10.55;96.25
68376;BME280;55318;52.068;5.188;2023-02-21T05:41:30;101993.0;;;10.57;96.23
68376;BME280;55318;52.068;5.188;2023-02-21T05:43:06;101998.0;;;10.6;96.18
68376;BME280;55318;52.068;5.188;2023-02-21T05:44:43;102007.0;;;10.54;96.34
68376;BME280;55318;52.068;5.188;2023-02-21T05:48:01;102011.0;;;10.47;96.56
68376;BME280;55318;52.068;5.188;2023-02-21T05:49:39;102009.0;;;10.57;96.4
68376;BME280;55318;52.068;5.188;2023-02-21T05:51:15;101999.0;;;10.71;95.6
68376;BME280;55318;52.068;5.188;2023-02-21T05:54:28;102001.0;;;10.49;96.5
68376;BME280;55318;52.068;5.188;2023-02-21T05:56:04;102005.0;;;10.52;96.48
68376;BME280;55318;52.068;5.188;2023-02-21T05:57:40;102006.0;;;10.58;96.27
68376;BME280;55318;52.068;5.188;2023-02-21T05:59:19;102013.0;;;10.56;96.41
68376;BME280;55318;52.068;5.188;2023-02-21T06:02:33;102015.0;;;10.65;96.35
68376;BME280;55318;52.068;5.188;2023-02-21T06:04:09;102027.0;;;10.63;96.13
68376;BME280;55318;52.068;5.188;2023-02-21T06:05:46;102022.0;;;10.52;96.62
68376;BME280;55318;52.068;5.188;2023-02-21T06:08:58;102012.0;;;10.6;96.48
68376;BME280;55318;52.068;5.188;2023-02-21T06:10:36;102009.0;;;10.47;97.01
68376;BME280;55318;52.068;5.188;2023-02-21T06:12:12;101996.0;;;10.56;96.72
68376;BME280;55318;52.068;5.188;2023-02-21T06:13:49;101994.0;;;10.51;96.91
68376;BME280;55318;52.068;5.188;2023-02-21T06:17:02;102005.0;;;10.37;97.71
68376;BME280;55318;52.068;5.188;2023-02-21T06:18:38;102010.0;;;10.53;97.03
68376;BME280;55318;52.068;5.188;2023-02-21T06:20:16;102016.0;;;10.37;97.82
68376;BME280;55318;52.068;5.188;2023-02-21T06:23:29;102019.0;;;10.43;97.58
68376;BME280;55318;52.068;5.188;2023-02-21T06:25:06;102018.0;;;10.5;97.06
68376;BME280;55318;52.068;5.188;2023-02-21T06:26:44;102011.0;;;10.57;96.82
68376;BME280;55318;52.068;5.188;2023-02-21T06:29:57;102010.0;;;10.29;97.31
68376;BME280;55318;52.068;5.188;2023-02-21T06:31:33;102007.0;;;10.53;97.23
68376;BME280;55318;52.068;5.188;2023-02-21T06:33:09;102008.0;;;10.46;97.46
68376;BME280;55318;52.068;5.188;2023-02-21T06:34:45;102012.0;;;10.5;97.01
68376;BME280;55318;52.068;5.188;2023-02-21T06:38:02;102020.0;;;10.51;97.03
68376;BME280;55318;52.068;5.188;2023-02-21T06:39:38;102016.0;;;10.45;97.66
68376;BME280;55318;52.068;5.188;2023-02-21T06:41:17;102021.0;;;10.55;97.15
68376;BME280;55318;52.068;5.188;2023-02-21T06:44:30;102019.0;;;10.41;97.72
68376;BME280;55318;52.068;5.188;2023-02-21T06:46:07;102030.0;;;10.53;97.36
68376;BME280;55318;52.068;5.188;2023-02-21T06:47:43;102030.0;;;10.6;97.02
68376;BME280;55318;52.068;5.188;2023-02-21T06:50:55;102027.0;;;10.51;97.09
68376;BME280;55318;52.068;5.188;2023-02-21T06:52:32;102033.0;;;10.58;96.9
68376;BME280;55318;52.068;5.188;2023-02-21T06:54:08;102026.0;;;10.53;97.33
68376;BME280;55318;52.068;5.188;2023-02-21T06:55:44;102026.0;;;10.62;96.7
68376;BME280;55318;52.068;5.188;2023-02-21T06:58:57;102030.0;;;10.66;96.41
68376;BME280;55318;52.068;5.188;2023-02-21T07:00:33;102026.0;;;10.57;96.23
68376;BME280;55318;52.068;5.188;2023-02-21T07:02:14;102027.0;;;10.6;96.71
68376;BME280;55318;52.068;5.188;2023-02-21T07:05:33;102025.0;;;10.54;97.21
68376;BME280;55318;52.068;5.188;2023-02-21T07:07:10;102024.0;;;10.61;96.5
68376;BME280;55318;52.068;5.188;2023-02-21T07:08:46;102028.0;;;10.47;97.51
68376;BME280;55318;52.068;5.188;2023-02-21T07:10:22;102028.0;;;10.53;97.22
68376;BME280;55318;52.068;5.188;2023-02-21T07:13:34;102030.0;;;10.63;97.22
68376;BME280;55318;52.068;5.188;2023-02-21T07:15:12;102028.0;;;10.44;97.4
68376;BME280;55318;52.068;5.188;2023-02-21T07:16:49;102024.0;;;10.51;97.38
68376;BME280;55318;52.068;5.188;2023-02-21T07:20:04;102022.0;;;10.35;98.43
68376;BME280;55318;52.068;5.188;2023-02-21T07:21:40;102024.0;;;10.32;98.44
68376;BME280;55318;52.068;5.188;2023-02-21T07:23:16;102021.0;;;10.28;98.47
68376;BME280;55318;52.068;5.188;2023-02-21T07:26:30;102019.0;;;10.39;98.05
68376;BME280;55318;52.068;5.188;2023-02-21T07:28:06;102016.0;;;10.38;97.89
68376;BME280;55318;52.068;5.188;2023-02-21T07:29:45;102015.0;;;10.46;97.74
68376;BME280;55318;52.068;5.188;2023-02-21T07:31:22;102016.0;;;10.52;97.51
68376;BME280;55318;52.068;5.188;2023-02-21T07:34:35;102014.0;;;10.65;96.91
68376;BME280;55318;52.068;5.188;2023-02-21T07:36:11;102023.0;;;10.63;96.98
68376;BME280;55318;52.068;5.188;2023-02-21T07:37:47;102022.0;;;10.64;96.65
68376;BME280;55318;52.068;5.188;2023-02-21T07:41:01;102030.0;;;10.5;96.87
68376;BME280;55318;52.068;5.188;2023-02-21T07:42:42;102027.0;;;10.49;97.78
68376;BME280;55318;52.068;5.188;2023-02-21T07:44:19;102026.0;;;10.52;97.35
68376;BME280;55318;52.068;5.188;2023-02-21T07:45:55;102027.0;;;10.54;97.4
68376;BME280;55318;52.068;5.188;2023-02-21T07:49:08;102027.0;;;10.61;97.03
68376;BME280;55318;52.068;5.188;2023-02-21T07:50:45;102024.0;;;10.62;97.16
68376;BME280;55318;52.068;5.188;2023-02-21T07:52:22;102030.0;;;10.57;97.17
68376;BME280;55318;52.068;5.188;2023-02-21T07:55:34;102032.0;;;10.56;97.56
68376;BME280;55318;52.068;5.188;2023-02-21T07:57:11;102036.0;;;10.52;97.22
68376;BME280;55318;52.068;5.188;2023-02-21T07:58:47;102026.0;;;10.5;97.62
68376;BME280;55318;52.068;5.188;2023-02-21T08:02:01;102030.0;;;10.59;97.44
68376;BME280;55318;52.068;5.188;2023-02-21T08:03:40;102031.0;;;10.52;97.71
68376;BME280;55318;52.068;5.188;2023-02-21T08:05:18;102033.0;;;10.51;98.01
68376;BME280;55318;52.068;5.188;2023-02-21T08:06:57;102037.0;;;10.6;97.49
68376;BME280;55318;52.068;5.188;2023-02-21T08:10:11;102038.0;;;10.7;97.2
68376;BME280;55318;52.068;5.188;2023-02-21T08:11:49;102040.0;;;10.66;97.3
68376;BME280;55318;52.068;5.188;2023-02-21T08:13:25;102041.0;;;10.74;97.02
68376;BME280;55318;52.068;5.188;2023-02-21T08:16:37;102042.0;;;10.74;96.73
68376;BME280;55318;52.068;5.188;2023-02-21T08:18:19;102045.0;;;10.56;97.45
68376;BME280;55318;52.068;5.188;2023-02-21T08:19:57;102044.0;;;10.54;97.61
68376;BME280;55318;52.068;5.188;2023-02-21T08:21:33;102036.0;;;10.68;97.06
68376;BME280;55318;52.068;5.188;2023-02-21T08:24:47;102034.0;;;10.6;97.49
68376;BME280;55318;52.068;5.188;2023-02-21T08:26:24;102032.0;;;10.55;97.82
68376;BME280;55318;52.068;5.188;2023-02-21T08:28:00;102040.0;;;10.7;97.38
68376;BME280;55318;52.068;5.188;2023-02-21T08:31:13;102042.0;;;10.56;97.93
68376;BME280;55318;52.068;5.188;2023-02-21T08:32:50;102042.0;;;10.7;97.31
68376;BME280;55318;52.068;5.188;2023-02-21T08:34:28;102040.0;;;10.56;98.16
68376;BME280;55318;52.068;5.188;2023-02-21T08:36:05;102035.0;;;10.42;98.15
68376;BME280;55318;52.068;5.188;2023-02-21T08:39:22;102030.0;;;10.39;98.9
68376;BME280;55318;52.068;5.188;2023-02-21T08:40:58;102032.0;;;10.47;98.7
68376;BME280;55318;52.068;5.188;2023-02-21T08:42:34;102030.0;;;10.52;98.63
68376;BME280;55318;52.068;5.188;2023-02-21T08:45:49;102032.0;;;10.47;98.75
68376;BME280;55318;52.068;5.188;2023-02-21T08:47:25;102032.0;;;10.58;98.43
68376;BME280;55318;52.068;5.188;2023-02-21T08:49:03;102026.0;;;10.45;99.11
68376;BME280;55318;52.068;5.188;2023-02-21T08:52:17;102025.0;;;10.49;98.98
68376;BME280;55318;52.068;5.188;2023-02-21T08:53:54;102026.0;;;10.47;98.78
68376;BME280;55318;52.068;5.188;2023-02-21T08:55:29;102026.0;;;10.59;98.59
68376;BME280;55318;52.068;5.188;2023-02-21T08:57:06;102028.0;;;10.46;98.88
68376;BME280;55318;52.068;5.188;2023-02-21T09:00:20;102031.0;;;10.52;98.8
68376;BME280;55318;52.068;5.188;2023-02-21T09:01:58;102035.0;;;10.42;99.09
68376;BME280;55318;52.068;5.188;2023-02-21T09:03:35;102032.0;;;10.53;99.17
68376;BME280;55318;52.068;5.188;2023-02-21T09:06:53;102026.0;;;10.67;98.69
68376;BME280;55318;52.068;5.188;2023-02-21T09:08:30;102023.0;;;10.63;98.4
68376;BME280;55318;52.068;5.188;2023-02-21T09:10:07;102023.0;;;10.54;98.74
68376;BME280;55318;52.068;5.188;2023-02-21T09:11:48;102024.0;;;10.41;98.8
68376;BME280;55318;52.068;5.188;2023-02-21T09:15:01;102030.0;;;10.52;98.94
68376;BME280;55318;52.068;5.188;2023-02-21T09:16:38;102025.0;;;10.6;99.05
68376;BME280;55318;52.068;5.188;2023-02-21T09:18:15;102021.0;;;10.59;98.69
68376;BME280;55318;52.068;5.188;2023-02-21T09:21:28;102012.0;;;10.69;98.62
68376;BME280;55318;52.068;5.188;2023-02-21T09:23:04;102012.0;;;10.68;98.37
68376;BME280;55318;52.068;5.188;2023-02-21T09:24:41;102015.0;;;10.57;98.76
68376;BME280;55318;52.068;5.188;2023-02-21T09:26:17;102012.0;;;10.68;98.7
68376;BME280;55318;52.068;5.188;2023-02-21T09:29:30;102014.0;;;10.51;99.22
68376;BME280;55318;52.068;5.188;2023-02-21T09:31:07;102011.0;;;10.45;99.93
68376;BME280;55318;52.068;5.188;2023-02-21T09:32:46;102008.0;;;10.59;99.14
68376;BME280;55318;52.068;5.188;2023-02-21T09:35:59;102003.0;;;10.53;99.01
68376;BME280;55318;52.068;5.188;2023-02-21T09:37:37;102008.0;;;10.46;99.54
68376;BME280;55318;52.068;5.188;2023-02-21T09:39:14;102005.0;;;10.61;99.39
68376;BME280;55318;52.068;5.188;2023-02-21T09:42:35;102001.0;;;10.48;100.0
68376;BME280;55318;52.068;5.188;2023-02-21T09:44:15;101997.0;;;10.51;100.0
68376;BME280;55318;52.068;5.188;2023-02-21T09:45:58;101998.0;;;10.47;99.95
68376;BME280;55318;52.068;5.188;2023-02-21T09:47:36;101998.0;;;10.35;100.0
68376;BME280;55318;52.068;5.188;2023-02-21T09:51:02;101998.0;;;10.44;100.0
68376;BME280;55318;52.068;5.188;2023-02-21T09:52:41;101994.0;;;10.57;100.0
68376;BME280;55318;52.068;5.188;2023-02-21T09:54:23;101992.0;;;10.65;99.6
68376;BME280;55318;52.068;5.188;2023-02-21T09:56:04;101994.0;;;10.49;99.7
68376;BME280;55318;52.068;5.188;2023-02-21T09:57:42;101986.0;;;10.68;99.76
68376;BME280;55318;52.068;5.188;2023-02-21T10:00:57;101985.0;;;10.68;99.41
68376;BME280;55318;52.068;5.188;2023-02-21T10:02:42;101985.0;;;10.63;99.54
68376;BME280;55318;52.068;5.188;2023-02-21T10:04:35;101984.0;;;10.76;99.12
68376;BME280;55318;52.068;5.188;2023-02-21T10:06:31;101982.0;;;10.76;98.84
68376;BME280;55318;52.068;5.188;2023-02-21T10:08:22;101981.0;;;10.66;99.23
68376;BME280;55318;52.068;5.188;2023-02-21T10:11:55;101977.0;;;10.78;99.23
68376;BME280;55318;52.068;5.188;2023-02-21T10:13:42;101980.0;;;10.81;98.85
68376;BME280;55318;52.068;5.188;2023-02-21T10:15:37;101976.0;;;10.72;99.25
68376;BME280;55318;52.068;5.188;2023-02-21T10:17:19;101980.0;;;10.74;99.38
68376;BME280;55318;52.068;5.188;2023-02-21T10:19:03;101983.0;;;10.81;98.76
68376;BME280;55318;52.068;5.188;2023-02-21T10:20:46;101978.0;;;10.74;99.16
68376;BME280;55318;52.068;5.188;2023-02-21T10:24:11;101983.0;;;10.72;99.13
68376;BME280;55318;52.068;5.188;2023-02-21T10:25:53;101980.0;;;10.59;100.0
68376;BME280;55318;52.068;5.188;2023-02-21T10:27:32;101985.0;;;10.71;99.19
68376;BME280;55318;52.068;5.188;2023-02-21T10:29:19;101989.0;;;10.88;98.82
68376;BME280;55318;52.068;5.188;2023-02-21T10:32:36;101988.0;;;10.64;99.34
68376;BME280;55318;52.068;5.188;2023-02-21T10:34:19;101986.0;;;10.74;98.98
68376;BME280;55318;52.068;5.188;2023-02-21T10:35:58;101990.0;;;10.78;98.83
68376;BME280;55318;52.068;5.188;2023-02-21T10:37:39;101988.0;;;10.87;98.76
68376;BME280;55318;52.068;5.188;2023-02-21T10:40:58;101993.0;;;10.9;98.46
68376;BME280;55318;52.068;5.188;2023-02-21T10:42:42;101987.0;;;10.83;98.59
68376;BME280;55318;52.068;5.188;2023-02-21T10:44:27;101987.0;;;10.8;98.41
68376;BME280;55318;52.068;5.188;2023-02-21T10:46:12;101989.0;;;10.94;98.15
68376;BME280;55318;52.068;5.188;2023-02-21T10:47:57;101990.0;;;10.93;98.4
68376;BME280;55318;52.068;5.188;2023-02-21T10:51:28;101990.0;;;11.02;98.11
68376;BME280;55318;52.068;5.188;2023-02-21T10:53:06;101991.0;;;10.95;98.54
68376;BME280;55318;52.068;5.188;2023-02-21T10:55:00;101996.0;;;10.9;98.39
68376;BME280;55318;52.068;5.188;2023-02-21T10:56:37;101998.0;;;10.84;98.56
68376;BME280;55318;52.068;5.188;2023-02-21T11:00:20;101993.0;;;10.98;98.21
68376;BME280;55318;52.068;5.188;2023-02-21T11:02:02;101997.0;;;11.02;98.12
68376;BME280;55318;52.068;5.188;2023-02-21T11:03:43;101992.0;;;10.89;98.61
68376;BME280;55318;52.068;5.188;2023-02-21T11:05:21;101987.0;;;10.81;98.8
68376;BME280;55318;52.068;5.188;2023-02-21T11:07:01;101988.0;;;10.8;98.83
68376;BME280;55318;52.068;5.188;2023-02-21T11:10:29;101990.0;;;10.93;98.48
68376;BME280;55318;52.068;5.188;2023-02-21T11:12:19;101986.0;;;10.97;98.22
68376;BME280;55318;52.068;5.188;2023-02-21T11:14:06;101986.0;;;10.87;98.81
68376;BME280;55318;52.068;5.188;2023-02-21T11:16:08;101984.0;;;10.87;99.05
68376;BME280;55318;52.068;5.188;2023-02-21T11:18:01;101984.0;;;10.91;98.43
68376;BME280;55318;52.068;5.188;2023-02-21T11:19:45;101981.0;;;10.96;98.49
68376;BME280;55318;52.068;5.188;2023-02-21T11:21:26;101978.0;;;10.91;98.4
68376;BME280;55318;52.068;5.188;2023-02-21T11:24:58;101978.0;;;11.03;97.97
68376;BME280;55318;52.068;5.188;2023-02-21T11:26:43;101977.0;;;11.01;97.94
68376;BME280;55318;52.068;5.188;2023-02-21T11:28:22;101976.0;;;11.08;97.65
68376;BME280;55318;52.068;5.188;2023-02-21T11:30:08;101975.0;;;10.87;98.48
68376;BME280;55318;52.068;5.188;2023-02-21T11:31:49;101975.0;;;10.96;98.58
68376;BME280;55318;52.068;5.188;2023-02-21T11:35:07;101974.0;;;11.08;97.87
68376;BME280;55318;52.068;5.188;2023-02-21T11:37:02;101972.0;;;10.97;97.96
68376;BME280;55318;52.068;5.188;2023-02-21T11:38:43;101975.0;;;10.92;97.4
68376;BME280;55318;52.068;5.188;2023-02-21T11:40:24;101970.0;;;11.03;97.17
68376;BME280;55318;52.068;5.188;2023-02-21T11:44:02;101974.0;;;11.06;96.99
68376;BME280;55318;52.068;5.188;2023-02-21T11:46:04;101972.0;;;10.83;97.66
68376;BME280;55318;52.068;5.188;2023-02-21T11:48:00;101974.0;;;10.87;97.63
68376;BME280;55318;52.068;5.188;2023-02-21T11:49:46;101966.0;;;11.01;97.39
68376;BME280;55318;52.068;5.188;2023-02-21T11:51:33;101968.0;;;11.09;97.03
68376;BME280;55318;52.068;5.188;2023-02-21T11:53:17;101969.0;;;10.82;97.73
68376;BME280;55318;52.068;5.188;2023-02-21T11:54:57;101966.0;;;11.07;97.17
68376;BME280;55318;52.068;5.188;2023-02-21T11:58:25;101964.0;;;11.18;96.77
68376;BME280;55318;52.068;5.188;2023-02-21T12:00:14;101966.0;;;11.11;97.13
68376;BME280;55318;52.068;5.188;2023-02-21T12:02:30;101961.0;;;11.11;96.75
68376;BME280;55318;52.068;5.188;2023-02-21T12:04:26;101962.0;;;11.03;96.88
68376;BME280;55318;52.068;5.188;2023-02-21T12:06:18;101960.0;;;10.98;96.73
68376;BME280;55318;52.068;5.188;2023-02-21T12:08:14;101963.0;;;11.21;96.07
68376;BME280;55318;52.068;5.188;2023-02-21T12:10:12;101957.0;;;11.03;96.33
68376;BME280;55318;52.068;5.188;2023-02-21T12:12:15;101959.0;;;11.03;96.38
68376;BME280;55318;52.068;5.188;2023-02-21T12:14:07;101958.0;;;11.16;96.33
68376;BME280;55318;52.068;5.188;2023-02-21T12:15:59;101957.0;;;10.99;96.65
68376;BME280;55318;52.068;5.188;2023-02-21T12:20:05;101949.0;;;11.05;96.85
68376;BME280;55318;52.068;5.188;2023-02-21T12:23:18;101948.0;;;11.01;96.95
68376;BME280;55318;52.068;5.188;2023-02-21T12:25:10;101942.0;;;10.92;97.2
68376;BME280;55318;52.068;5.188;2023-02-21T12:26:55;101944.0;;;11.06;97.18
68376;BME280;55318;52.068;5.188;2023-02-21T12:28:49;101941.0;;;10.98;97.2
68376;BME280;55318;52.068;5.188;2023-02-21T12:30:50;101942.0;;;10.92;96.89
68376;BME280;55318;52.068;5.188;2023-02-21T12:32:47;101944.0;;;10.98;96.73
68376;BME280;55318;52.068;5.188;2023-02-21T12:34:45;101943.0;;;11.19;96.35
68376;BME280;55318;52.068;5.188;2023-02-21T12:36:49;101941.0;;;11.17;96.26
68376;BME280;55318;52.068;5.188;2023-02-21T12:39:37;101939.0;;;10.92;96.6
68376;BME280;55318;52.068;5.188;2023-02-21T12:42:54;101936.0;;;10.95;97.03
68376;BME280;55318;52.068;5.188;2023-02-21T12:44:47;101938.0;;;10.96;97.03
68376;BME280;55318;52.068;5.188;2023-02-21T12:46:35;101935.0;;;11.11;96.37
68376;BME280;55318;52.068;5.188;2023-02-21T12:48:19;101930.0;;;10.99;96.39
68376;BME280;55318;52.068;5.188;2023-02-21T12:50:05;101926.0;;;10.91;96.62
68376;BME280;55318;52.068;5.188;2023-02-21T12:51:53;101927.0;;;11.0;96.76
68376;BME280;55318;52.068;5.188;2023-02-21T12:53:38;101930.0;;;10.99;96.82
68376;BME280;55318;52.068;5.188;2023-02-21T12:57:05;101928.0;;;11.02;96.81
68376;BME280;55318;52.068;5.188;2023-02-21T12:58:47;101925.0;;;11.04;96.64
68376;BME280;55318;52.068;5.188;2023-02-21T13:00:33;101921.0;;;11.0;96.77
68376;BME280;55318;52.068;5.188;2023-02-21T13:02:18;101922.0;;;11.14;96.43
68376;BME280;55318;52.068;5.188;2023-02-21T13:04:10;101917.0;;;11.06;96.53
68376;BME280;55318;52.068;5.188;2023-02-21T13:07:36;101916.0;;;11.0;96.54
68376;BME280;55318;52.068;5.188;2023-02-21T13:09:21;101917.0;;;11.12;96.56
68376;BME280;55318;52.068;5.188;2023-02-21T13:12:53;101915.0;;;11.02;96.59
68376;BME280;55318;52.068;5.188;2023-02-21T13:14:39;101916.0;;;11.19;96.45
68376;BME280;55318;52.068;5.188;2023-02-21T13:17:58;101913.0;;;11.05;96.4
68376;BME280;55318;52.068;5.188;2023-02-21T13:19:41;101914.0;;;11.24;96.02
68376;BME280;55318;52.068;5.188;2023-02-21T13:21:27;101912.0;;;11.25;95.84
68376;BME280;55318;52.068;5.188;2023-02-21T13:24:50;101907.0;;;11.18;96.17
68376;BME280;55318;52.068;5.188;2023-02-21T13:26:39;101907.0;;;11.17;96.13
68376;BME280;55318;52.068;5.188;2023-02-21T13:29:22;101899.0;;;11.23;95.66
68376;BME280;55318;52.068;5.188;2023-02-21T13:32:49;101905.0;;;11.27;95.33
68376;BME280;55318;52.068;5.188;2023-02-21T13:34:29;101900.0;;;11.17;95.56